sensor_id;sensor_type;location;lat;lon;timestamp;P1;durP1;ratioP1;P2;durP2;ratioP2
44026;SDS011;29696;55.698;37.460;2022-11-15T00:00:14;2.50;;;2.17;;
44026;SDS011;29696;55.698;37.460;2022-11-15T00:02:59;1.98;;;1.17;;
44026;SDS011;29696;55.698;37.460;2022-11-15T00:05:44;5.60;;;2.00;;
44026;SDS011;29696;55.698;37.460;2022-11-15T00:08:32;3.53;;;2.00;;
44026;SDS011;29696;55.698;37.460;2022-11-15T00:11:17;3.03;;;1.90;;
44026;SDS011;29696;55.698;37.460;2022-11-15T00:14:02;2.05;;;1.33;;
44026;SDS011;29696;55.698;37.460;2022-11-15T00:16:47;1.60;;;1.40;;
44026;SDS011;29696;55.698;37.460;2022-11-15T00:19:32;2.45;;;1.58;;
44026;SDS011;29696;55.698;37.460;2022-11-15T00:22:17;3.03;;;1.08;;
44026;SDS011;29696;55.698;37.460;2022-11-15T00:25:02;2.85;;;1.60;;
44026;SDS011;29696;55.698;37.460;2022-11-15T00:27:47;5.80;;;1.90;;
44026;SDS011;29696;55.698;37.460;2022-11-15T00:30:31;11.50;;;3.45;;
44026;SDS011;29696;55.698;37.460;2022-11-15T00:33:16;7.38;;;3.17;;
44026;SDS011;29696;55.698;37.460;2022-11-15T00:36:02;3.85;;;2.10;;
44026;SDS011;29696;55.698;37.460;2022-11-15T00:38:49;2.73;;;2.20;;
44026;SDS011;29696;55.698;37.460;2022-11-15T00:41:33;9.80;;;2.22;;
44026;SDS011;29696;55.698;37.460;2022-11-15T00:44:18;2.63;;;1.80;;
44026;SDS011;29696;55.698;37.460;2022-11-15T00:47:03;2.40;;;1.80;;
44026;SDS011;29696;55.698;37.460;2022-11-15T00:49:48;6.00;;;2.88;;
44026;SDS011;29696;55.698;37.460;2022-11-15T00:52:33;4.25;;;1.95;;
44026;SDS011;29696;55.698;37.460;2022-11-15T00:55:18;1.83;;;1.40;;
44026;SDS011;29696;55.698;37.460;2022-11-15T00:58:03;4.13;;;1.57;;
44026;SDS011;29696;55.698;37.460;2022-11-15T01:00:48;1.40;;;1.30;;
44026;SDS011;29696;55.698;37.460;2022-11-15T01:03:33;2.23;;;1.87;;
44026;SDS011;29696;55.698;37.460;2022-11-15T01:06:18;3.20;;;1.43;;
44026;SDS011;29696;55.698;37.460;2022-11-15T01:09:03;3.75;;;1.50;;
44026;SDS011;29696;55.698;37.460;2022-11-15T01:11:48;3.95;;;1.58;;
44026;SDS011;29696;55.698;37.460;2022-11-15T01:14:33;4.63;;;1.27;;
44026;SDS011;29696;55.698;37.460;2022-11-15T01:17:18;3.00;;;1.75;;
44026;SDS011;29696;55.698;37.460;2022-11-15T01:20:03;4.50;;;1.40;;
44026;SDS011;29696;55.698;37.460;2022-11-15T01:22:48;4.47;;;2.83;;
44026;SDS011;29696;55.698;37.460;2022-11-15T01:25:33;8.50;;;1.90;;
44026;SDS011;29696;55.698;37.460;2022-11-15T01:28:18;1.73;;;1.27;;
44026;SDS011;29696;55.698;37.460;2022-11-15T01:31:04;3.45;;;1.48;;
44026;SDS011;29696;55.698;37.460;2022-11-15T01:33:51;4.07;;;1.30;;
44026;SDS011;29696;55.698;37.460;2022-11-15T01:36:36;4.05;;;1.60;;
44026;SDS011;29696;55.698;37.460;2022-11-15T01:39:21;2.78;;;1.20;;
44026;SDS011;29696;55.698;37.460;2022-11-15T01:42:05;2.28;;;1.33;;
44026;SDS011;29696;55.698;37.460;2022-11-15T01:44:50;5.88;;;1.52;;
44026;SDS011;29696;55.698;37.460;2022-11-15T01:47:37;2.47;;;1.40;;
44026;SDS011;29696;55.698;37.460;2022-11-15T01:50:29;3.50;;;1.90;;
44026;SDS011;29696;55.698;37.460;2022-11-15T01:53:17;5.17;;;1.73;;
44026;SDS011;29696;55.698;37.460;2022-11-15T01:56:06;8.40;;;1.87;;
44026;SDS011;29696;55.698;37.460;2022-11-15T01:58:56;3.37;;;1.93;;
44026;SDS011;29696;55.698;37.460;2022-11-15T02:01:43;3.60;;;1.63;;
44026;SDS011;29696;55.698;37.460;2022-11-15T02:04:28;5.22;;;3.05;;
44026;SDS011;29696;55.698;37.460;2022-11-15T02:07:16;1.20;;;1.10;;
44026;SDS011;29696;55.698;37.460;2022-11-15T02:10:07;1.87;;;1.37;;
44026;SDS011;29696;55.698;37.460;2022-11-15T02:12:58;1.20;;;1.10;;
44026;SDS011;29696;55.698;37.460;2022-11-15T02:40:23;15.53;;;2.37;;
44026;SDS011;29696;55.698;37.460;2022-11-15T02:43:45;3.43;;;1.50;;
44026;SDS011;29696;55.698;37.460;2022-11-15T02:46:50;2.85;;;1.65;;
44026;SDS011;29696;55.698;37.460;2022-11-15T02:49:58;2.87;;;2.13;;
44026;SDS011;29696;55.698;37.460;2022-11-15T02:52:46;1.83;;;1.60;;
44026;SDS011;29696;55.698;37.460;2022-11-15T02:55:36;4.93;;;2.53;;
44026;SDS011;29696;55.698;37.460;2022-11-15T03:12:12;5.22;;;2.25;;
44026;SDS011;29696;55.698;37.460;2022-11-15T03:15:14;7.83;;;1.77;;
44026;SDS011;29696;55.698;37.460;2022-11-15T03:18:29;4.47;;;1.83;;
44026;SDS011;29696;55.698;37.460;2022-11-15T03:21:21;1.87;;;1.60;;
44026;SDS011;29696;55.698;37.460;2022-11-15T03:24:08;3.20;;;1.20;;
44026;SDS011;29696;55.698;37.460;2022-11-15T03:29:41;3.33;;;1.90;;
44026;SDS011;29696;55.698;37.460;2022-11-15T03:32:32;13.10;;;2.97;;
44026;SDS011;29696;55.698;37.460;2022-11-15T03:35:22;10.87;;;1.97;;
44026;SDS011;29696;55.698;37.460;2022-11-15T03:38:14;5.50;;;2.47;;
44026;SDS011;29696;55.698;37.460;2022-11-15T03:41:05;16.65;;;2.75;;
44026;SDS011;29696;55.698;37.460;2022-11-15T03:43:58;4.33;;;2.23;;
44026;SDS011;29696;55.698;37.460;2022-11-15T03:46:57;3.03;;;2.03;;
44026;SDS011;29696;55.698;37.460;2022-11-15T03:50:17;6.17;;;1.87;;
44026;SDS011;29696;55.698;37.460;2022-11-15T03:53:04;4.23;;;1.80;;
44026;SDS011;29696;55.698;37.460;2022-11-15T03:55:49;2.35;;;1.65;;
44026;SDS011;29696;55.698;37.460;2022-11-15T03:58:34;6.53;;;1.58;;
44026;SDS011;29696;55.698;37.460;2022-11-15T04:01:19;2.55;;;1.60;;
44026;SDS011;29696;55.698;37.460;2022-11-15T04:04:04;4.50;;;2.08;;
44026;SDS011;29696;55.698;37.460;2022-11-15T04:06:48;3.55;;;1.52;;
44026;SDS011;29696;55.698;37.460;2022-11-15T04:09:33;3.55;;;2.40;;
44026;SDS011;29696;55.698;37.460;2022-11-15T04:12:40;10.85;;;2.15;;
44026;SDS011;29696;55.698;37.460;2022-11-15T04:15:27;10.73;;;2.23;;
44026;SDS011;29696;55.698;37.460;2022-11-15T04:18:13;2.10;;;2.00;;
44026;SDS011;29696;55.698;37.460;2022-11-15T04:20:58;4.40;;;1.40;;
44026;SDS011;29696;55.698;37.460;2022-11-15T04:24:01;5.93;;;2.33;;
44026;SDS011;29696;55.698;37.460;2022-11-15T04:26:58;3.87;;;1.50;;
44026;SDS011;29696;55.698;37.460;2022-11-15T04:29:43;2.38;;;2.10;;
44026;SDS011;29696;55.698;37.460;2022-11-15T04:32:29;3.50;;;1.60;;
44026;SDS011;29696;55.698;37.460;2022-11-15T04:35:14;4.43;;;1.52;;
44026;SDS011;29696;55.698;37.460;2022-11-15T04:37:59;3.80;;;1.73;;
44026;SDS011;29696;55.698;37.460;2022-11-15T04:40:45;2.53;;;1.67;;
44026;SDS011;29696;55.698;37.460;2022-11-15T04:43:30;3.73;;;1.83;;
44026;SDS011;29696;55.698;37.460;2022-11-15T04:46:15;6.03;;;1.70;;
44026;SDS011;29696;55.698;37.460;2022-11-15T04:52:10;5.13;;;1.57;;
44026;SDS011;29696;55.698;37.460;2022-11-15T04:54:55;2.83;;;1.83;;
44026;SDS011;29696;55.698;37.460;2022-11-15T04:57:40;5.40;;;1.60;;
44026;SDS011;29696;55.698;37.460;2022-11-15T05:00:25;3.97;;;1.80;;
44026;SDS011;29696;55.698;37.460;2022-11-15T05:03:11;3.70;;;1.53;;
44026;SDS011;29696;55.698;37.460;2022-11-15T05:06:14;1.33;;;1.20;;
44026;SDS011;29696;55.698;37.460;2022-11-15T05:08:59;7.15;;;2.65;;
44026;SDS011;29696;55.698;37.460;2022-11-15T05:11:44;2.78;;;1.55;;
44026;SDS011;29696;55.698;37.460;2022-11-15T05:14:29;6.80;;;3.45;;
44026;SDS011;29696;55.698;37.460;2022-11-15T05:17:14;2.95;;;2.35;;
44026;SDS011;29696;55.698;37.460;2022-11-15T05:32:31;11.20;;;1.87;;
44026;SDS011;29696;55.698;37.460;2022-11-15T05:35:32;6.22;;;2.47;;
44026;SDS011;29696;55.698;37.460;2022-11-15T05:45:59;5.13;;;2.83;;
44026;SDS011;29696;55.698;37.460;2022-11-15T05:48:45;7.97;;;2.17;;
44026;SDS011;29696;55.698;37.460;2022-11-15T05:51:33;4.37;;;1.73;;
44026;SDS011;29696;55.698;37.460;2022-11-15T05:54:18;7.57;;;2.72;;
44026;SDS011;29696;55.698;37.460;2022-11-15T05:57:06;6.73;;;2.20;;
44026;SDS011;29696;55.698;37.460;2022-11-15T05:59:51;6.20;;;2.45;;
44026;SDS011;29696;55.698;37.460;2022-11-15T06:02:36;5.15;;;2.35;;
44026;SDS011;29696;55.698;37.460;2022-11-15T06:05:21;5.43;;;1.95;;
44026;SDS011;29696;55.698;37.460;2022-11-15T06:08:06;3.50;;;2.22;;
44026;SDS011;29696;55.698;37.460;2022-11-15T06:10:50;9.02;;;2.00;;
44026;SDS011;29696;55.698;37.460;2022-11-15T06:13:35;8.50;;;2.05;;
44026;SDS011;29696;55.698;37.460;2022-11-15T06:16:20;6.82;;;2.47;;
44026;SDS011;29696;55.698;37.460;2022-11-15T06:19:05;4.57;;;1.90;;
44026;SDS011;29696;55.698;37.460;2022-11-15T06:21:51;5.70;;;2.77;;
44026;SDS011;29696;55.698;37.460;2022-11-15T06:24:36;4.43;;;1.83;;
44026;SDS011;29696;55.698;37.460;2022-11-15T06:27:21;4.38;;;2.13;;
44026;SDS011;29696;55.698;37.460;2022-11-15T06:30:06;4.90;;;2.55;;
44026;SDS011;29696;55.698;37.460;2022-11-15T06:35:36;14.40;;;2.37;;
44026;SDS011;29696;55.698;37.460;2022-11-15T06:38:21;9.02;;;1.83;;
44026;SDS011;29696;55.698;37.460;2022-11-15T06:41:08;2.42;;;1.65;;
44026;SDS011;29696;55.698;37.460;2022-11-15T06:43:54;4.30;;;2.40;;
44026;SDS011;29696;55.698;37.460;2022-11-15T06:46:39;11.32;;;3.08;;
44026;SDS011;29696;55.698;37.460;2022-11-15T06:49:24;7.03;;;2.28;;
44026;SDS011;29696;55.698;37.460;2022-11-15T06:52:08;3.97;;;1.70;;
44026;SDS011;29696;55.698;37.460;2022-11-15T06:54:53;7.82;;;2.65;;
44026;SDS011;29696;55.698;37.460;2022-11-15T06:57:45;3.35;;;2.35;;
44026;SDS011;29696;55.698;37.460;2022-11-15T07:00:34;3.57;;;1.83;;
44026;SDS011;29696;55.698;37.460;2022-11-15T07:03:19;6.13;;;2.15;;
44026;SDS011;29696;55.698;37.460;2022-11-15T07:06:04;10.77;;;2.80;;
44026;SDS011;29696;55.698;37.460;2022-11-15T07:08:50;11.97;;;3.60;;
44026;SDS011;29696;55.698;37.460;2022-11-15T07:11:34;11.40;;;2.72;;
44026;SDS011;29696;55.698;37.460;2022-11-15T07:14:19;9.77;;;3.55;;
44026;SDS011;29696;55.698;37.460;2022-11-15T07:17:04;11.10;;;2.83;;
44026;SDS011;29696;55.698;37.460;2022-11-15T07:19:49;3.33;;;2.15;;
44026;SDS011;29696;55.698;37.460;2022-11-15T07:22:33;4.82;;;2.20;;
44026;SDS011;29696;55.698;37.460;2022-11-15T07:25:18;11.50;;;3.35;;
44026;SDS011;29696;55.698;37.460;2022-11-15T07:28:03;4.13;;;2.05;;
44026;SDS011;29696;55.698;37.460;2022-11-15T07:30:48;9.48;;;2.72;;
44026;SDS011;29696;55.698;37.460;2022-11-15T07:33:33;8.98;;;2.67;;
44026;SDS011;29696;55.698;37.460;2022-11-15T07:36:19;5.97;;;2.17;;
44026;SDS011;29696;55.698;37.460;2022-11-15T07:39:04;2.85;;;2.15;;
44026;SDS011;29696;55.698;37.460;2022-11-15T07:41:48;10.43;;;2.75;;
44026;SDS011;29696;55.698;37.460;2022-11-15T07:44:53;7.87;;;3.50;;
44026;SDS011;29696;55.698;37.460;2022-11-15T07:47:38;7.97;;;2.45;;
44026;SDS011;29696;55.698;37.460;2022-11-15T07:50:23;8.30;;;2.55;;
44026;SDS011;29696;55.698;37.460;2022-11-15T07:53:09;7.63;;;2.73;;
44026;SDS011;29696;55.698;37.460;2022-11-15T07:55:54;5.53;;;2.97;;
44026;SDS011;29696;55.698;37.460;2022-11-15T07:58:39;8.07;;;2.17;;
44026;SDS011;29696;55.698;37.460;2022-11-15T08:01:24;14.02;;;3.10;;
44026;SDS011;29696;55.698;37.460;2022-11-15T08:04:10;12.20;;;3.08;;
44026;SDS011;29696;55.698;37.460;2022-11-15T08:06:55;10.07;;;3.00;;
44026;SDS011;29696;55.698;37.460;2022-11-15T08:09:41;6.40;;;2.00;;
44026;SDS011;29696;55.698;37.460;2022-11-15T08:12:29;6.30;;;2.15;;
44026;SDS011;29696;55.698;37.460;2022-11-15T08:15:14;10.37;;;2.90;;
44026;SDS011;29696;55.698;37.460;2022-11-15T08:18:03;7.97;;;3.65;;
44026;SDS011;29696;55.698;37.460;2022-11-15T08:20:57;5.32;;;2.15;;
44026;SDS011;29696;55.698;37.460;2022-11-15T08:23:44;4.10;;;2.20;;
44026;SDS011;29696;55.698;37.460;2022-11-15T08:29:14;8.32;;;2.75;;
44026;SDS011;29696;55.698;37.460;2022-11-15T08:31:59;17.33;;;3.40;;
44026;SDS011;29696;55.698;37.460;2022-11-15T08:34:44;16.02;;;8.65;;
44026;SDS011;29696;55.698;37.460;2022-11-15T08:37:29;3.37;;;2.37;;
44026;SDS011;29696;55.698;37.460;2022-11-15T08:40:14;18.40;;;3.28;;
44026;SDS011;29696;55.698;37.460;2022-11-15T08:42:59;9.20;;;3.70;;
44026;SDS011;29696;55.698;37.460;2022-11-15T08:45:46;5.33;;;2.57;;
44026;SDS011;29696;55.698;37.460;2022-11-15T08:48:31;9.30;;;3.03;;
44026;SDS011;29696;55.698;37.460;2022-11-15T08:51:16;7.65;;;2.50;;
44026;SDS011;29696;55.698;37.460;2022-11-15T08:54:00;5.95;;;2.72;;
44026;SDS011;29696;55.698;37.460;2022-11-15T08:56:45;8.70;;;2.50;;
44026;SDS011;29696;55.698;37.460;2022-11-15T08:59:30;6.10;;;2.55;;
44026;SDS011;29696;55.698;37.460;2022-11-15T09:02:15;9.98;;;3.22;;
44026;SDS011;29696;55.698;37.460;2022-11-15T09:07:45;7.53;;;3.27;;
44026;SDS011;29696;55.698;37.460;2022-11-15T09:10:30;7.72;;;2.97;;
44026;SDS011;29696;55.698;37.460;2022-11-15T09:13:14;5.90;;;3.97;;
44026;SDS011;29696;55.698;37.460;2022-11-15T09:16:00;12.70;;;2.72;;
44026;SDS011;29696;55.698;37.460;2022-11-15T09:18:45;10.00;;;2.77;;
44026;SDS011;29696;55.698;37.460;2022-11-15T09:21:30;8.27;;;2.90;;
44026;SDS011;29696;55.698;37.460;2022-11-15T09:24:15;12.82;;;3.92;;
44026;SDS011;29696;55.698;37.460;2022-11-15T09:27:01;17.30;;;4.47;;
44026;SDS011;29696;55.698;37.460;2022-11-15T09:29:46;10.43;;;3.65;;
44026;SDS011;29696;55.698;37.460;2022-11-15T09:32:31;7.03;;;2.47;;
44026;SDS011;29696;55.698;37.460;2022-11-15T09:35:16;8.40;;;3.38;;
44026;SDS011;29696;55.698;37.460;2022-11-15T09:38:01;6.65;;;3.05;;
44026;SDS011;29696;55.698;37.460;2022-11-15T09:40:50;7.57;;;2.30;;
44026;SDS011;29696;55.698;37.460;2022-11-15T09:43:49;23.93;;;3.77;;
44026;SDS011;29696;55.698;37.460;2022-11-15T09:51:10;3.93;;;2.57;;
44026;SDS011;29696;55.698;37.460;2022-11-15T10:00:24;5.50;;;3.93;;
44026;SDS011;29696;55.698;37.460;2022-11-15T10:03:30;9.97;;;3.10;;
44026;SDS011;29696;55.698;37.460;2022-11-15T10:06:01;5.83;;;2.83;;
44026;SDS011;29696;55.698;37.460;2022-11-15T10:23:30;6.57;;;2.80;;
44026;SDS011;29696;55.698;37.460;2022-11-15T10:25:58;3.87;;;2.10;;
44026;SDS011;29696;55.698;37.460;2022-11-15T10:28:27;6.13;;;2.33;;
44026;SDS011;29696;55.698;37.460;2022-11-15T10:30:56;3.40;;;2.33;;
44026;SDS011;29696;55.698;37.460;2022-11-15T10:33:34;9.30;;;2.60;;
44026;SDS011;29696;55.698;37.460;2022-11-15T10:38:56;9.20;;;3.53;;
44026;SDS011;29696;55.698;37.460;2022-11-15T10:47:25;7.60;;;3.83;;
44026;SDS011;29696;55.698;37.460;2022-11-15T10:49:58;6.80;;;2.80;;
44026;SDS011;29696;55.698;37.460;2022-11-15T10:52:45;4.50;;;3.23;;
44026;SDS011;29696;55.698;37.460;2022-11-15T10:58:05;8.50;;;3.13;;
44026;SDS011;29696;55.698;37.460;2022-11-15T11:00:45;6.07;;;2.83;;
44026;SDS011;29696;55.698;37.460;2022-11-15T11:06:13;6.43;;;3.20;;
44026;SDS011;29696;55.698;37.460;2022-11-15T11:09:02;7.07;;;3.73;;
44026;SDS011;29696;55.698;37.460;2022-11-15T11:11:46;11.77;;;3.60;;
44026;SDS011;29696;55.698;37.460;2022-11-15T11:14:23;6.47;;;2.60;;
44026;SDS011;29696;55.698;37.460;2022-11-15T11:17:05;12.43;;;3.57;;
44026;SDS011;29696;55.698;37.460;2022-11-15T11:20:01;7.90;;;3.93;;
44026;SDS011;29696;55.698;37.460;2022-11-15T11:22:32;8.47;;;3.60;;
44026;SDS011;29696;55.698;37.460;2022-11-15T11:25:22;5.20;;;3.03;;
44026;SDS011;29696;55.698;37.460;2022-11-15T11:31:34;8.40;;;3.63;;
44026;SDS011;29696;55.698;37.460;2022-11-15T11:37:39;6.60;;;3.27;;
44026;SDS011;29696;55.698;37.460;2022-11-15T11:40:32;8.13;;;3.57;;
44026;SDS011;29696;55.698;37.460;2022-11-15T11:49:34;5.82;;;2.67;;
44026;SDS011;29696;55.698;37.460;2022-11-15T11:52:38;3.92;;;2.85;;
44026;SDS011;29696;55.698;37.460;2022-11-15T11:55:15;8.33;;;3.27;;
44026;SDS011;29696;55.698;37.460;2022-11-15T12:00:22;6.17;;;2.53;;
44026;SDS011;29696;55.698;37.460;2022-11-15T12:03:03;4.60;;;3.13;;
44026;SDS011;29696;55.698;37.460;2022-11-15T12:11:49;13.13;;;3.45;;
44026;SDS011;29696;55.698;37.460;2022-11-15T12:14:47;5.25;;;3.47;;
44026;SDS011;29696;55.698;37.460;2022-11-15T12:17:18;7.50;;;2.43;;
44026;SDS011;29696;55.698;37.460;2022-11-15T12:19:49;7.77;;;2.53;;
44026;SDS011;29696;55.698;37.460;2022-11-15T12:22:19;8.17;;;4.97;;
44026;SDS011;29696;55.698;37.460;2022-11-15T12:24:51;10.63;;;3.60;;
44026;SDS011;29696;55.698;37.460;2022-11-15T12:27:46;9.17;;;3.17;;
44026;SDS011;29696;55.698;37.460;2022-11-15T12:30:19;4.40;;;2.50;;
44026;SDS011;29696;55.698;37.460;2022-11-15T12:33:09;7.33;;;2.70;;
44026;SDS011;29696;55.698;37.460;2022-11-15T12:36:04;9.67;;;4.37;;
44026;SDS011;29696;55.698;37.460;2022-11-15T12:41:27;4.77;;;3.23;;
44026;SDS011;29696;55.698;37.460;2022-11-15T12:43:58;5.70;;;3.03;;
44026;SDS011;29696;55.698;37.460;2022-11-15T12:49:44;4.60;;;3.63;;
44026;SDS011;29696;55.698;37.460;2022-11-15T12:52:11;9.90;;;3.33;;
44026;SDS011;29696;55.698;37.460;2022-11-15T12:57:31;18.23;;;4.47;;
44026;SDS011;29696;55.698;37.460;2022-11-15T13:03:27;14.27;;;3.97;;
44026;SDS011;29696;55.698;37.460;2022-11-15T13:05:56;9.73;;;3.87;;
44026;SDS011;29696;55.698;37.460;2022-11-15T13:11:45;18.70;;;6.03;;
44026;SDS011;29696;55.698;37.460;2022-11-15T13:27:25;9.70;;;4.57;;
44026;SDS011;29696;55.698;37.460;2022-11-15T13:29:51;7.47;;;4.97;;
44026;SDS011;29696;55.698;37.460;2022-11-15T13:32:18;13.00;;;6.10;;
44026;SDS011;29696;55.698;37.460;2022-11-15T13:34:47;11.33;;;5.57;;
44026;SDS011;29696;55.698;37.460;2022-11-15T13:40:29;9.03;;;4.77;;
44026;SDS011;29696;55.698;37.460;2022-11-15T13:42:59;9.33;;;4.80;;
44026;SDS011;29696;55.698;37.460;2022-11-15T13:49:16;19.70;;;7.07;;
44026;SDS011;29696;55.698;37.460;2022-11-15T13:51:44;20.53;;;5.50;;
44026;SDS011;29696;55.698;37.460;2022-11-15T14:03:24;11.20;;;4.73;;
44026;SDS011;29696;55.698;37.460;2022-11-15T14:06:09;13.90;;;7.10;;
44026;SDS011;29696;55.698;37.460;2022-11-15T14:08:41;13.65;;;5.70;;
44026;SDS011;29696;55.698;37.460;2022-11-15T14:17:01;16.07;;;4.63;;
44026;SDS011;29696;55.698;37.460;2022-11-15T14:28:14;7.60;;;3.87;;
44026;SDS011;29696;55.698;37.460;2022-11-15T14:31:10;10.20;;;4.50;;
44026;SDS011;29696;55.698;37.460;2022-11-15T14:33:39;7.47;;;4.50;;
44026;SDS011;29696;55.698;37.460;2022-11-15T14:36:10;11.50;;;5.33;;
44026;SDS011;29696;55.698;37.460;2022-11-15T14:38:57;8.07;;;4.77;;
44026;SDS011;29696;55.698;37.460;2022-11-15T14:41:24;10.53;;;4.60;;
44026;SDS011;29696;55.698;37.460;2022-11-15T14:43:52;10.07;;;5.27;;
44026;SDS011;29696;55.698;37.460;2022-11-15T14:46:19;7.03;;;4.60;;
44026;SDS011;29696;55.698;37.460;2022-11-15T14:48:45;13.57;;;4.90;;
44026;SDS011;29696;55.698;37.460;2022-11-15T14:51:15;9.17;;;6.23;;
44026;SDS011;29696;55.698;37.460;2022-11-15T14:53:44;16.03;;;6.00;;
44026;SDS011;29696;55.698;37.460;2022-11-15T14:56:11;7.93;;;4.77;;
44026;SDS011;29696;55.698;37.460;2022-11-15T14:58:38;14.27;;;7.67;;
44026;SDS011;29696;55.698;37.460;2022-11-15T15:01:38;9.33;;;5.33;;
44026;SDS011;29696;55.698;37.460;2022-11-15T15:03:57;12.53;;;4.97;;
44026;SDS011;29696;55.698;37.460;2022-11-15T15:06:24;5.47;;;4.60;;
44026;SDS011;29696;55.698;37.460;2022-11-15T15:08:51;11.33;;;5.07;;
44026;SDS011;29696;55.698;37.460;2022-11-15T15:11:22;10.17;;;4.03;;
44026;SDS011;29696;55.698;37.460;2022-11-15T15:13:51;17.70;;;6.10;;
44026;SDS011;29696;55.698;37.460;2022-11-15T15:16:18;13.67;;;5.07;;
44026;SDS011;29696;55.698;37.460;2022-11-15T15:18:45;9.77;;;5.47;;
44026;SDS011;29696;55.698;37.460;2022-11-15T15:21:20;24.47;;;7.80;;
44026;SDS011;29696;55.698;37.460;2022-11-15T15:23:50;15.93;;;6.23;;
44026;SDS011;29696;55.698;37.460;2022-11-15T15:26:20;15.90;;;6.77;;
44026;SDS011;29696;55.698;37.460;2022-11-15T15:28:47;18.53;;;9.07;;
44026;SDS011;29696;55.698;37.460;2022-11-15T15:31:14;10.10;;;6.90;;
44026;SDS011;29696;55.698;37.460;2022-11-15T15:33:40;16.73;;;7.13;;
44026;SDS011;29696;55.698;37.460;2022-11-15T15:36:10;12.90;;;5.53;;
44026;SDS011;29696;55.698;37.460;2022-11-15T15:38:38;13.30;;;5.30;;
44026;SDS011;29696;55.698;37.460;2022-11-15T15:41:13;8.83;;;3.87;;
44026;SDS011;29696;55.698;37.460;2022-11-15T15:43:40;8.23;;;3.73;;
44026;SDS011;29696;55.698;37.460;2022-11-15T15:46:11;11.30;;;3.77;;
44026;SDS011;29696;55.698;37.460;2022-11-15T15:48:39;10.90;;;3.50;;
44026;SDS011;29696;55.698;37.460;2022-11-15T15:51:06;7.87;;;4.30;;
44026;SDS011;29696;55.698;37.460;2022-11-15T15:53:33;7.73;;;4.10;;
44026;SDS011;29696;55.698;37.460;2022-11-15T15:56:00;11.80;;;4.93;;
44026;SDS011;29696;55.698;37.460;2022-11-15T15:58:26;11.17;;;4.37;;
44026;SDS011;29696;55.698;37.460;2022-11-15T16:00:53;8.13;;;4.37;;
44026;SDS011;29696;55.698;37.460;2022-11-15T16:03:19;8.67;;;4.93;;
44026;SDS011;29696;55.698;37.460;2022-11-15T16:05:45;11.50;;;4.80;;
44026;SDS011;29696;55.698;37.460;2022-11-15T16:08:22;14.07;;;6.47;;
44026;SDS011;29696;55.698;37.460;2022-11-15T16:10:49;6.87;;;4.23;;
44026;SDS011;29696;55.698;37.460;2022-11-15T16:13:15;6.60;;;5.23;;
44026;SDS011;29696;55.698;37.460;2022-11-15T16:15:43;10.70;;;6.13;;
44026;SDS011;29696;55.698;37.460;2022-11-15T16:18:13;11.07;;;5.27;;
44026;SDS011;29696;55.698;37.460;2022-11-15T16:20:42;9.70;;;7.27;;
44026;SDS011;29696;55.698;37.460;2022-11-15T16:23:16;11.23;;;6.00;;
44026;SDS011;29696;55.698;37.460;2022-11-15T16:28:46;14.60;;;6.40;;
44026;SDS011;29696;55.698;37.460;2022-11-15T16:31:12;11.87;;;6.53;;
44026;SDS011;29696;55.698;37.460;2022-11-15T16:33:39;7.57;;;5.87;;
44026;SDS011;29696;55.698;37.460;2022-11-15T16:36:18;11.10;;;6.47;;
44026;SDS011;29696;55.698;37.460;2022-11-15T16:38:46;11.60;;;6.73;;
44026;SDS011;29696;55.698;37.460;2022-11-15T16:41:12;11.37;;;7.27;;
44026;SDS011;29696;55.698;37.460;2022-11-15T16:43:39;11.10;;;6.57;;
44026;SDS011;29696;55.698;37.460;2022-11-15T16:46:08;10.80;;;6.53;;
44026;SDS011;29696;55.698;37.460;2022-11-15T16:48:39;8.80;;;6.87;;
44026;SDS011;29696;55.698;37.460;2022-11-15T16:51:05;11.97;;;8.03;;
44026;SDS011;29696;55.698;37.460;2022-11-15T16:53:32;15.17;;;7.97;;
44026;SDS011;29696;55.698;37.460;2022-11-15T16:55:58;12.63;;;7.97;;
44026;SDS011;29696;55.698;37.460;2022-11-15T16:58:25;11.37;;;8.07;;
44026;SDS011;29696;55.698;37.460;2022-11-15T17:00:54;12.93;;;8.83;;
44026;SDS011;29696;55.698;37.460;2022-11-15T17:03:22;14.13;;;9.00;;
44026;SDS011;29696;55.698;37.460;2022-11-15T17:05:49;10.67;;;7.53;;
44026;SDS011;29696;55.698;37.460;2022-11-15T17:08:16;15.03;;;9.80;;
44026;SDS011;29696;55.698;37.460;2022-11-15T17:10:42;14.13;;;7.90;;
44026;SDS011;29696;55.698;37.460;2022-11-15T17:13:12;11.93;;;9.03;;
44026;SDS011;29696;55.698;37.460;2022-11-15T17:15:38;12.73;;;7.53;;
44026;SDS011;29696;55.698;37.460;2022-11-15T17:18:05;15.10;;;9.23;;
44026;SDS011;29696;55.698;37.460;2022-11-15T17:20:31;13.50;;;8.73;;
44026;SDS011;29696;55.698;37.460;2022-11-15T17:22:58;12.13;;;8.97;;
44026;SDS011;29696;55.698;37.460;2022-11-15T17:25:24;15.27;;;10.20;;
44026;SDS011;29696;55.698;37.460;2022-11-15T17:27:50;12.53;;;9.43;;
44026;SDS011;29696;55.698;37.460;2022-11-15T17:30:17;16.23;;;8.87;;
44026;SDS011;29696;55.698;37.460;2022-11-15T17:32:44;10.33;;;8.03;;
44026;SDS011;29696;55.698;37.460;2022-11-15T17:35:12;15.70;;;8.23;;
44026;SDS011;29696;55.698;37.460;2022-11-15T17:37:39;12.63;;;8.97;;
44026;SDS011;29696;55.698;37.460;2022-11-15T17:40:05;10.57;;;8.83;;
44026;SDS011;29696;55.698;37.460;2022-11-15T17:42:32;12.60;;;9.13;;
44026;SDS011;29696;55.698;37.460;2022-11-15T17:44:58;14.80;;;7.90;;
44026;SDS011;29696;55.698;37.460;2022-11-15T17:47:25;12.37;;;9.27;;
44026;SDS011;29696;55.698;37.460;2022-11-15T17:49:51;12.87;;;8.23;;
44026;SDS011;29696;55.698;37.460;2022-11-15T17:52:17;13.53;;;8.20;;
44026;SDS011;29696;55.698;37.460;2022-11-15T17:54:44;12.13;;;7.83;;
44026;SDS011;29696;55.698;37.460;2022-11-15T17:57:10;11.93;;;8.50;;
44026;SDS011;29696;55.698;37.460;2022-11-15T17:59:36;13.97;;;7.67;;
44026;SDS011;29696;55.698;37.460;2022-11-15T18:02:03;18.10;;;7.43;;
44026;SDS011;29696;55.698;37.460;2022-11-15T18:04:31;10.27;;;7.87;;
44026;SDS011;29696;55.698;37.460;2022-11-15T18:06:57;17.87;;;9.40;;
44026;SDS011;29696;55.698;37.460;2022-11-15T18:09:23;10.40;;;6.17;;
44026;SDS011;29696;55.698;37.460;2022-11-15T18:11:51;11.93;;;8.20;;
44026;SDS011;29696;55.698;37.460;2022-11-15T18:14:19;7.47;;;5.97;;
44026;SDS011;29696;55.698;37.460;2022-11-15T18:16:45;15.00;;;8.30;;
44026;SDS011;29696;55.698;37.460;2022-11-15T18:19:12;13.43;;;8.50;;
44026;SDS011;29696;55.698;37.460;2022-11-15T18:21:39;13.00;;;8.00;;
44026;SDS011;29696;55.698;37.460;2022-11-15T18:27:09;10.20;;;7.93;;
44026;SDS011;29696;55.698;37.460;2022-11-15T18:29:36;10.63;;;7.67;;
44026;SDS011;29696;55.698;37.460;2022-11-15T18:32:05;11.07;;;8.37;;
44026;SDS011;29696;55.698;37.460;2022-11-15T18:34:37;13.38;;;7.75;;
44026;SDS011;29696;55.698;37.460;2022-11-15T18:37:03;12.00;;;7.20;;
44026;SDS011;29696;55.698;37.460;2022-11-15T18:39:30;12.80;;;7.43;;
44026;SDS011;29696;55.698;37.460;2022-11-15T18:41:56;15.60;;;9.93;;
44026;SDS011;29696;55.698;37.460;2022-11-15T18:44:23;13.13;;;8.47;;
44026;SDS011;29696;55.698;37.460;2022-11-15T18:46:49;14.30;;;9.57;;
44026;SDS011;29696;55.698;37.460;2022-11-15T18:49:16;10.23;;;6.57;;
44026;SDS011;29696;55.698;37.460;2022-11-15T18:51:44;12.33;;;8.37;;
44026;SDS011;29696;55.698;37.460;2022-11-15T18:54:12;10.03;;;7.07;;
44026;SDS011;29696;55.698;37.460;2022-11-15T18:56:39;12.40;;;8.47;;
44026;SDS011;29696;55.698;37.460;2022-11-15T18:59:06;11.87;;;7.73;;
44026;SDS011;29696;55.698;37.460;2022-11-15T19:01:34;13.37;;;8.03;;